Shemah Yisrael!
Hear, O Israel: the LORD our God, the LORD is one.
You shall love the LORD your God with all your heart and with all your soul and with all your might.
(Deuteronomy 6:4-5)
Houston / Ellington, TX, United States (KEFD) 29-36N 095-10W
Jul 20, 2019 - 04:50 PM EDT / 2019.07.20 2050 UTC
Wind: from the SSE (150 degrees) at 15 MPH (13 KT) gusting to 21 MPH (18 KT):0
Visibility: 10 mile(s):0
Sky conditions: mostly cloudy
Temperature: 93 F (34 C)
Heat index: 101.8 F (38.8 C):1
Dew Point: 73 F (23 C)
Relative Humidity: 52%
Pressure (altimeter): 29.93 in. Hg (1013 hPa)
ob: KEFD 202050Z 15013G18KT 10SM SCT040 SCT070 BKN250 34/23 A2993
cycle: 21
w e b m a s t e r   a t   s h e m a h   d o t   n e t